HISTORICAL SENSOR DATA

Sensor Data Report

DB LIVE
CURRENT TIME--:--:--
DEVICE NETWORK Gateway Status
13 ESP · realtime ~1s · history 60s
Weather WS-MOD-01
ONLINE
Actuator ACT-MOD-01
OFFLINE
Mainboard L3 MB-L3-01
ONLINE
Mainboard L5 MB-L5-01
ONLINE
Remote AC AC-REMOTE-01
ONLINE
PZEM L3-01 PWR-L3-01
OFFLINE
PZEM L3-02 PWR-L3-02
OFFLINE
PZEM L3-03 PWR-L3-03
OFFLINE
PZEM L3-04 PWR-L3-04
OFFLINE
PZEM L5-01 PWR-L5-01
ONLINE
PZEM L5-02 PWR-L5-02
ONLINE
PZEM L5-03 PWR-L5-03
OFFLINE
PZEM L5-04 PWR-L5-04
OFFLINE
REPORT FILTER

Periode & Sensor

DATABASE HISTORY
RESET
QUICK RANGE Hari ini 7 hari 30 hari
PERIODE07 Sep 2026sampai 07 Sep 2026
TOTAL DATA14,298sensor readings
MINIMUM0.00sesuai filter
AVERAGE34.75sesuai filter
MAXIMUM912.00sesuai filter
REPORT RESULT

Data Sensor

07/09/2026 — 07/09/2026 EXPORT CSV
NOTANGGALWAKTUDEVICECHANNELSENSORVALUEUNIT
301 07/09/2026 03:27:00 MB-L5-01Mainboard Lantai 5 L5-SHT-03-RH SHT20 3 Humidity 46.60 %RH
302 07/09/2026 03:27:00 MB-L3-01Mainboard Lantai 3 L3-SHT-01-T SHT20 1 Temperature 28.00 °C
303 07/09/2026 03:27:00 MB-L3-01Mainboard Lantai 3 L3-LUX-01 Illuminance / LUX 1 0.20 lux
304 07/09/2026 03:27:00 WS-MOD-01Weather Station Module WS-PRES Tekanan Udara 910.00 hPa
305 07/09/2026 03:27:00 MB-L5-01Mainboard Lantai 5 L5-SHT-01-T SHT20 1 Temperature 27.90 °C
306 07/09/2026 03:27:00 PWR-L5-01Power Meter L5 PZEM 01 PZEM-L5-01-VOLT PZEM L5-01 Voltage 227.40 V
307 07/09/2026 03:27:00 MB-L5-01Mainboard Lantai 5 L5-ST-01 Surface Temperature 1 22.70 °C
308 07/09/2026 03:27:00 MB-L3-01Mainboard Lantai 3 L3-LUX-05 Illuminance / LUX 5 0.30 lux
309 07/09/2026 03:27:00 PWR-L5-02Power Meter L5 PZEM 02 PZEM-L5-02-POWER PZEM L5-02 Active Power 0.00 W
310 07/09/2026 03:27:00 MB-L5-01Mainboard Lantai 5 L5-LUX-02 Illuminance / LUX 2 0.10 lux
311 07/09/2026 03:27:00 MB-L3-01Mainboard Lantai 3 L3-LUX-04 Illuminance / LUX 4 0.10 lux
312 07/09/2026 03:27:00 MB-L3-01Mainboard Lantai 3 L3-AI-02 Analog Input 2 3.12 V
313 07/09/2026 03:27:00 MB-L3-01Mainboard Lantai 3 L3-SHT-02-RH SHT20 2 Humidity 46.10 %RH
314 07/09/2026 03:27:00 PWR-L5-01Power Meter L5 PZEM 01 PZEM-L5-01-ENERGY PZEM L5-01 Energy 0.10 kWh
315 07/09/2026 03:27:00 MB-L5-01Mainboard Lantai 5 L5-HFT-02 Heat Flow Temperature 2 21.70 °C
316 07/09/2026 03:27:00 MB-L5-01Mainboard Lantai 5 L5-AI-02 Analog Input 2 3.05 V
317 07/09/2026 03:27:00 PWR-L5-02Power Meter L5 PZEM 02 PZEM-L5-02-PF PZEM L5-02 Power Factor 0.00
318 07/09/2026 03:27:00 MB-L5-01Mainboard Lantai 5 L5-LUX-06 Illuminance / LUX 6 0.10 lux
319 07/09/2026 03:27:00 MB-L5-01Mainboard Lantai 5 L5-SHT-02-RH SHT20 2 Humidity 46.20 %RH
320 07/09/2026 03:27:00 MB-L3-01Mainboard Lantai 3 L3-AI-05 Analog Input 5 3.12 V
321 07/09/2026 03:27:00 MB-L3-01Mainboard Lantai 3 L3-RAD-01 Radiation 1 1.00 W/m²
322 07/09/2026 03:27:00 WS-MOD-01Weather Station Module WS-TEMP Suhu Udara 18.30 °C
323 07/09/2026 03:27:00 AC-REMOTE-01Remote AC AC-MODE AC Operating Mode 1.00 code
324 07/09/2026 03:27:00 MB-L5-01Mainboard Lantai 5 L5-RAD-01 Radiation 1 1.00 W/m²
325 07/09/2026 03:27:00 PWR-L5-02Power Meter L5 PZEM 02 PZEM-L5-02-VOLT PZEM L5-02 Voltage 227.30 V
326 07/09/2026 03:27:00 MB-L5-01Mainboard Lantai 5 L5-BGT-03 Black Globe Temperature 3 25.90 °C
327 07/09/2026 03:27:00 MB-L5-01Mainboard Lantai 5 L5-AI-05 Analog Input 5 3.05 V
328 07/09/2026 03:27:00 MB-L3-01Mainboard Lantai 3 L3-LUX-02 Illuminance / LUX 2 0.20 lux
329 07/09/2026 03:27:00 WS-MOD-01Weather Station Module WS-DIR Arah Angin 67.00 °
330 07/09/2026 03:27:00 MB-L3-01Mainboard Lantai 3 L3-SHT-01-RH SHT20 1 Humidity 46.80 %RH
331 07/09/2026 03:27:00 PWR-L5-02Power Meter L5 PZEM 02 PZEM-L5-02-ENERGY PZEM L5-02 Energy 0.04 kWh
332 07/09/2026 03:27:00 MB-L5-01Mainboard Lantai 5 L5-LUX-03 Illuminance / LUX 3 0.10 lux
333 07/09/2026 03:27:00 MB-L5-01Mainboard Lantai 5 L5-SHT-01-RH SHT20 1 Humidity 47.20 %RH
334 07/09/2026 03:27:00 PWR-L5-01Power Meter L5 PZEM 01 PZEM-L5-01-CURR PZEM L5-01 Current 0.12 A
335 07/09/2026 03:27:00 MB-L5-01Mainboard Lantai 5 L5-ST-02 Surface Temperature 2 21.90 °C
336 07/09/2026 03:27:00 MB-L3-01Mainboard Lantai 3 L3-LUX-06 Illuminance / LUX 6 0.30 lux
337 07/09/2026 03:27:00 MB-L5-01Mainboard Lantai 5 L5-LUX-05 Illuminance / LUX 5 0.10 lux
338 07/09/2026 03:26:00 MB-L3-01Mainboard Lantai 3 L3-LUX-03 Illuminance / LUX 3 0.20 lux
339 07/09/2026 03:26:00 MB-L3-01Mainboard Lantai 3 L3-AI-01 Analog Input 1 3.12 V
340 07/09/2026 03:26:00 MB-L3-01Mainboard Lantai 3 L3-SHT-02-T SHT20 2 Temperature 28.40 °C
341 07/09/2026 03:26:00 PWR-L5-02Power Meter L5 PZEM 02 PZEM-L5-02-FREQ PZEM L5-02 Frequency 50.00 Hz
342 07/09/2026 03:26:00 MB-L5-01Mainboard Lantai 5 L5-LUX-04 Illuminance / LUX 4 0.10 lux
343 07/09/2026 03:26:00 MB-L5-01Mainboard Lantai 5 L5-SHT-02-T SHT20 2 Temperature 28.40 °C
344 07/09/2026 03:26:00 PWR-L5-01Power Meter L5 PZEM 01 PZEM-L5-01-POWER PZEM L5-01 Active Power 10.00 W
345 07/09/2026 03:26:00 MB-L5-01Mainboard Lantai 5 L5-HFT-01 Heat Flow Temperature 1 22.80 °C
346 07/09/2026 03:26:00 MB-L5-01Mainboard Lantai 5 L5-AI-01 Analog Input 1 3.05 V
347 07/09/2026 03:26:00 MB-L3-01Mainboard Lantai 3 L3-SHT-03-RH SHT20 3 Humidity 46.00 %RH
348 07/09/2026 03:26:00 WS-MOD-01Weather Station Module WS-WIND Kecepatan Angin 6.08 m/s
349 07/09/2026 03:26:00 MB-L3-01Mainboard Lantai 3 L3-AI-04 Analog Input 4 3.12 V
350 07/09/2026 03:26:00 PWR-L5-01Power Meter L5 PZEM 01 PZEM-L5-01-PF PZEM L5-01 Power Factor 0.38
351 07/09/2026 03:26:00 MB-L5-01Mainboard Lantai 5 L5-BGT-02 Black Globe Temperature 2 26.20 °C
352 07/09/2026 03:26:00 MB-L5-01Mainboard Lantai 5 L5-AI-04 Analog Input 4 3.05 V
353 07/09/2026 03:26:00 AC-REMOTE-01Remote AC AC-SETPOINT AC Set Temperature 23.00 °C
354 07/09/2026 03:26:00 MB-L5-01Mainboard Lantai 5 L5-SHT-03-RH SHT20 3 Humidity 46.70 %RH
355 07/09/2026 03:26:00 MB-L3-01Mainboard Lantai 3 L3-SHT-01-T SHT20 1 Temperature 28.00 °C
356 07/09/2026 03:26:00 MB-L3-01Mainboard Lantai 3 L3-LUX-01 Illuminance / LUX 1 0.20 lux
357 07/09/2026 03:26:00 WS-MOD-01Weather Station Module WS-PRES Tekanan Udara 910.00 hPa
358 07/09/2026 03:26:00 MB-L5-01Mainboard Lantai 5 L5-SHT-01-T SHT20 1 Temperature 28.00 °C
359 07/09/2026 03:26:00 PWR-L5-01Power Meter L5 PZEM 01 PZEM-L5-01-VOLT PZEM L5-01 Voltage 227.30 V
360 07/09/2026 03:26:00 MB-L5-01Mainboard Lantai 5 L5-ST-01 Surface Temperature 1 22.70 °C
361 07/09/2026 03:26:00 MB-L3-01Mainboard Lantai 3 L3-LUX-05 Illuminance / LUX 5 0.30 lux
362 07/09/2026 03:26:00 PWR-L5-02Power Meter L5 PZEM 02 PZEM-L5-02-POWER PZEM L5-02 Active Power 0.00 W
363 07/09/2026 03:26:00 MB-L5-01Mainboard Lantai 5 L5-LUX-02 Illuminance / LUX 2 0.10 lux
364 07/09/2026 03:26:00 MB-L3-01Mainboard Lantai 3 L3-LUX-04 Illuminance / LUX 4 0.10 lux
365 07/09/2026 03:26:00 MB-L3-01Mainboard Lantai 3 L3-AI-02 Analog Input 2 3.12 V
366 07/09/2026 03:26:00 MB-L3-01Mainboard Lantai 3 L3-SHT-02-RH SHT20 2 Humidity 46.10 %RH
367 07/09/2026 03:26:00 PWR-L5-01Power Meter L5 PZEM 01 PZEM-L5-01-ENERGY PZEM L5-01 Energy 0.10 kWh
368 07/09/2026 03:26:00 MB-L5-01Mainboard Lantai 5 L5-HFT-02 Heat Flow Temperature 2 21.70 °C
369 07/09/2026 03:26:00 MB-L5-01Mainboard Lantai 5 L5-AI-02 Analog Input 2 3.05 V
370 07/09/2026 03:26:00 PWR-L5-02Power Meter L5 PZEM 02 PZEM-L5-02-PF PZEM L5-02 Power Factor 0.00
371 07/09/2026 03:26:00 MB-L5-01Mainboard Lantai 5 L5-LUX-06 Illuminance / LUX 6 0.10 lux
372 07/09/2026 03:26:00 MB-L5-01Mainboard Lantai 5 L5-SHT-02-RH SHT20 2 Humidity 46.20 %RH
373 07/09/2026 03:26:00 MB-L3-01Mainboard Lantai 3 L3-AI-05 Analog Input 5 3.12 V
374 07/09/2026 03:26:00 MB-L3-01Mainboard Lantai 3 L3-RAD-01 Radiation 1 1.00 W/m²
375 07/09/2026 03:26:00 WS-MOD-01Weather Station Module WS-TEMP Suhu Udara 18.40 °C
376 07/09/2026 03:26:00 AC-REMOTE-01Remote AC AC-MODE AC Operating Mode 1.00 code
377 07/09/2026 03:26:00 MB-L5-01Mainboard Lantai 5 L5-RAD-01 Radiation 1 1.00 W/m²
378 07/09/2026 03:26:00 PWR-L5-02Power Meter L5 PZEM 02 PZEM-L5-02-VOLT PZEM L5-02 Voltage 227.20 V
379 07/09/2026 03:26:00 MB-L5-01Mainboard Lantai 5 L5-BGT-03 Black Globe Temperature 3 25.90 °C
380 07/09/2026 03:26:00 MB-L5-01Mainboard Lantai 5 L5-AI-05 Analog Input 5 3.05 V
381 07/09/2026 03:26:00 MB-L3-01Mainboard Lantai 3 L3-LUX-02 Illuminance / LUX 2 0.20 lux
382 07/09/2026 03:26:00 WS-MOD-01Weather Station Module WS-DIR Arah Angin 83.00 °
383 07/09/2026 03:26:00 MB-L3-01Mainboard Lantai 3 L3-SHT-01-RH SHT20 1 Humidity 46.90 %RH
384 07/09/2026 03:26:00 PWR-L5-02Power Meter L5 PZEM 02 PZEM-L5-02-ENERGY PZEM L5-02 Energy 0.04 kWh
385 07/09/2026 03:26:00 MB-L5-01Mainboard Lantai 5 L5-LUX-03 Illuminance / LUX 3 0.10 lux
386 07/09/2026 03:26:00 MB-L5-01Mainboard Lantai 5 L5-SHT-01-RH SHT20 1 Humidity 47.20 %RH
387 07/09/2026 03:26:00 PWR-L5-01Power Meter L5 PZEM 01 PZEM-L5-01-CURR PZEM L5-01 Current 0.12 A
388 07/09/2026 03:26:00 MB-L5-01Mainboard Lantai 5 L5-ST-02 Surface Temperature 2 22.00 °C
389 07/09/2026 03:26:00 MB-L3-01Mainboard Lantai 3 L3-LUX-06 Illuminance / LUX 6 0.30 lux
390 07/09/2026 03:26:00 MB-L5-01Mainboard Lantai 5 L5-LUX-05 Illuminance / LUX 5 0.10 lux
391 07/09/2026 03:26:00 MB-L3-01Mainboard Lantai 3 L3-SHT-03-T SHT20 3 Temperature 28.40 °C
392 07/09/2026 03:26:00 MB-L3-01Mainboard Lantai 3 L3-AI-03 Analog Input 3 3.12 V
393 07/09/2026 03:26:00 PWR-L5-01Power Meter L5 PZEM 01 PZEM-L5-01-FREQ PZEM L5-01 Frequency 50.00 Hz
394 07/09/2026 03:26:00 MB-L5-01Mainboard Lantai 5 L5-BGT-01 Black Globe Temperature 1 26.10 °C
395 07/09/2026 03:26:00 MB-L5-01Mainboard Lantai 5 L5-AI-03 Analog Input 3 3.05 V
396 07/09/2026 03:26:00 AC-REMOTE-01Remote AC AC-POWER AC Power State 1.00 state
397 07/09/2026 03:26:00 MB-L5-01Mainboard Lantai 5 L5-SHT-03-T SHT20 3 Temperature 28.30 °C
398 07/09/2026 03:26:00 MB-L3-01Mainboard Lantai 3 L3-AI-06 Analog Input 6 3.12 V
399 07/09/2026 03:26:00 MB-L3-01Mainboard Lantai 3 L3-RAD-02 Radiation 2 0.00 W/m²
400 07/09/2026 03:26:00 WS-MOD-01Weather Station Module WS-RH Kelembapan Udara 81.40 %RH
Menampilkan maksimal 100 data per halaman